sensor_id;sensor_type;location;lat;lon;timestamp;pressure;altitude;pressure_sealevel;temperature;humidity
51195;BME280;37259;49.972;19.850;2022-10-30T00:00:59;99310;;;12.1;85.6
51195;BME280;37259;49.972;19.850;2022-10-30T00:01:59;99310;;;12.1;85.6
51195;BME280;37259;49.972;19.850;2022-10-30T00:02:59;99310;;;12;85.8
51195;BME280;37259;49.972;19.850;2022-10-30T00:03:59;99310;;;12;85.8
51195;BME280;37259;49.972;19.850;2022-10-30T00:04:59;99310;;;12;85.8
51195;BME280;37259;49.972;19.850;2022-10-30T00:06:02;99300;;;11.9;85.8
51195;BME280;37259;49.972;19.850;2022-10-30T00:06:59;99310;;;11.9;85.8
51195;BME280;37259;49.972;19.850;2022-10-30T00:07:59;99310;;;11.9;85.8
51195;BME280;37259;49.972;19.850;2022-10-30T00:08:59;99310;;;11.9;85.9
51195;BME280;37259;49.972;19.850;2022-10-30T00:09:59;99310;;;11.9;85.9
51195;BME280;37259;49.972;19.850;2022-10-30T00:11:03;99300;;;11.8;86
51195;BME280;37259;49.972;19.850;2022-10-30T00:11:59;99300;;;11.8;86
51195;BME280;37259;49.972;19.850;2022-10-30T00:12:59;99310;;;11.8;85.9
51195;BME280;37259;49.972;19.850;2022-10-30T00:13:59;99310;;;11.8;85.9
51195;BME280;37259;49.972;19.850;2022-10-30T00:14:59;99310;;;11.7;85.9
51195;BME280;37259;49.972;19.850;2022-10-30T00:15:59;99310;;;11.7;85.9
51195;BME280;37259;49.972;19.850;2022-10-30T00:16:59;99310;;;11.7;86
51195;BME280;37259;49.972;19.850;2022-10-30T00:17:59;99310;;;11.7;86
51195;BME280;37259;49.972;19.850;2022-10-30T00:18:59;99310;;;11.7;86
51195;BME280;37259;49.972;19.850;2022-10-30T00:19:59;99310;;;11.7;86.1
51195;BME280;37259;49.972;19.850;2022-10-30T00:21:03;99310;;;11.7;86.2
51195;BME280;37259;49.972;19.850;2022-10-30T00:21:59;99310;;;11.6;86.2
51195;BME280;37259;49.972;19.850;2022-10-30T00:22:59;99310;;;11.6;86.2
51195;BME280;37259;49.972;19.850;2022-10-30T00:23:59;99310;;;11.6;86.3
51195;BME280;37259;49.972;19.850;2022-10-30T00:24:59;99310;;;11.6;86.3
51195;BME280;37259;49.972;19.850;2022-10-30T00:26:01;99310;;;11.6;86.4
51195;BME280;37259;49.972;19.850;2022-10-30T00:26:59;99320;;;11.6;86.4
51195;BME280;37259;49.972;19.850;2022-10-30T00:27:59;99320;;;11.6;86.4
51195;BME280;37259;49.972;19.850;2022-10-30T00:28:59;99320;;;11.6;86.5
51195;BME280;37259;49.972;19.850;2022-10-30T00:29:59;99320;;;11.5;86.5
51195;BME280;37259;49.972;19.850;2022-10-30T00:30:59;99320;;;11.5;86.5
51195;BME280;37259;49.972;19.850;2022-10-30T00:31:59;99320;;;11.5;86.6
51195;BME280;37259;49.972;19.850;2022-10-30T00:32:59;99320;;;11.5;86.6
51195;BME280;37259;49.972;19.850;2022-10-30T00:33:59;99320;;;11.5;86.6
51195;BME280;37259;49.972;19.850;2022-10-30T00:34:59;99310;;;11.5;86.6
51195;BME280;37259;49.972;19.850;2022-10-30T00:35:59;99310;;;11.4;86.7
51195;BME280;37259;49.972;19.850;2022-10-30T00:36:59;99310;;;11.4;86.7
51195;BME280;37259;49.972;19.850;2022-10-30T00:37:59;99310;;;11.4;86.7
51195;BME280;37259;49.972;19.850;2022-10-30T00:38:59;99310;;;11.4;86.7
51195;BME280;37259;49.972;19.850;2022-10-30T00:39:59;99310;;;11.4;86.7
51195;BME280;37259;49.972;19.850;2022-10-30T00:40:59;99310;;;11.3;86.7
51195;BME280;37259;49.972;19.850;2022-10-30T00:41:59;99310;;;11.3;86.7
51195;BME280;37259;49.972;19.850;2022-10-30T00:42:59;99320;;;11.3;86.7
51195;BME280;37259;49.972;19.850;2022-10-30T00:43:59;99320;;;11.3;86.7
51195;BME280;37259;49.972;19.850;2022-10-30T00:44:59;99320;;;11.3;86.8
51195;BME280;37259;49.972;19.850;2022-10-30T00:45:59;99320;;;11.3;86.8
51195;BME280;37259;49.972;19.850;2022-10-30T00:46:59;99320;;;11.3;86.9
51195;BME280;37259;49.972;19.850;2022-10-30T00:47:59;99320;;;11.3;86.9
51195;BME280;37259;49.972;19.850;2022-10-30T00:48:59;99330;;;11.3;87
51195;BME280;37259;49.972;19.850;2022-10-30T00:50:00;99330;;;11.2;87.1
51195;BME280;37259;49.972;19.850;2022-10-30T00:50:59;99330;;;11.2;87.1
51195;BME280;37259;49.972;19.850;2022-10-30T00:51:59;99330;;;11.3;87.2
51195;BME280;37259;49.972;19.850;2022-10-30T00:52:59;99330;;;11.3;87.2
51195;BME280;37259;49.972;19.850;2022-10-30T00:53:59;99340;;;11.3;87.3
51195;BME280;37259;49.972;19.850;2022-10-30T00:55:03;99340;;;11.3;87.3
51195;BME280;37259;49.972;19.850;2022-10-30T00:56:00;99340;;;11.3;87.3
51195;BME280;37259;49.972;19.850;2022-10-30T00:56:59;99330;;;11.3;87.5
51195;BME280;37259;49.972;19.850;2022-10-30T00:57:59;99330;;;11.3;87.5
51195;BME280;37259;49.972;19.850;2022-10-30T00:58:59;99330;;;11.3;87.5
51195;BME280;37259;49.972;19.850;2022-10-30T00:59:59;99320;;;11.3;87.6
51195;BME280;37259;49.972;19.850;2022-10-30T01:00:59;99320;;;11.3;87.6
51195;BME280;37259;49.972;19.850;2022-10-30T01:01:59;99320;;;11.3;87.6
51195;BME280;37259;49.972;19.850;2022-10-30T01:02:59;99320;;;11.3;87.7
51195;BME280;37259;49.972;19.850;2022-10-30T01:03:59;99320;;;11.3;87.7
51195;BME280;37259;49.972;19.850;2022-10-30T01:04:59;99310;;;11.3;88
51195;BME280;37259;49.972;19.850;2022-10-30T01:05:59;99310;;;11.3;88
51195;BME280;37259;49.972;19.850;2022-10-30T01:06:59;99310;;;11.3;88.2
51195;BME280;37259;49.972;19.850;2022-10-30T01:07:59;99310;;;11.3;88.2
51195;BME280;37259;49.972;19.850;2022-10-30T01:08:59;99300;;;11.4;88.4
51195;BME280;37259;49.972;19.850;2022-10-30T01:09:59;99300;;;11.4;88.4
51195;BME280;37259;49.972;19.850;2022-10-30T01:10:59;99290;;;11.4;88.7
51195;BME280;37259;49.972;19.850;2022-10-30T01:11:59;99290;;;11.4;88.7
51195;BME280;37259;49.972;19.850;2022-10-30T01:12:59;99290;;;11.4;88.8
51195;BME280;37259;49.972;19.850;2022-10-30T01:14:00;99290;;;11.4;88.8
51195;BME280;37259;49.972;19.850;2022-10-30T01:14:59;99290;;;11.4;89.4
51195;BME280;37259;49.972;19.850;2022-10-30T01:16:04;99290;;;11.4;89.4
51195;BME280;37259;49.972;19.850;2022-10-30T01:17:03;99290;;;11.5;89.6
51195;BME280;37259;49.972;19.850;2022-10-30T01:18:02;99290;;;11.5;89.7
51195;BME280;37259;49.972;19.850;2022-10-30T01:19:02;99290;;;11.5;89.7
51195;BME280;37259;49.972;19.850;2022-10-30T01:20:01;99300;;;11.5;90.2
51195;BME280;37259;49.972;19.850;2022-10-30T01:21:02;99300;;;11.6;90.2
51195;BME280;37259;49.972;19.850;2022-10-30T01:22:04;99300;;;11.6;90.2
51195;BME280;37259;49.972;19.850;2022-10-30T01:23:01;99300;;;11.6;90.2
51195;BME280;37259;49.972;19.850;2022-10-30T01:24:05;99300;;;11.6;90.2
51195;BME280;37259;49.972;19.850;2022-10-30T01:25:02;99310;;;11.7;90.2
51195;BME280;37259;49.972;19.850;2022-10-30T01:26:01;99310;;;11.7;90.2
51195;BME280;37259;49.972;19.850;2022-10-30T01:27:02;99310;;;11.7;90.2
51195;BME280;37259;49.972;19.850;2022-10-30T01:28:02;99310;;;11.7;90.3
51195;BME280;37259;49.972;19.850;2022-10-30T01:29:02;99310;;;11.7;90.3
51195;BME280;37259;49.972;19.850;2022-10-30T01:30:01;99310;;;11.7;90.3
51195;BME280;37259;49.972;19.850;2022-10-30T01:31:01;99310;;;11.7;90.3
51195;BME280;37259;49.972;19.850;2022-10-30T01:32:03;99310;;;11.8;90.3
51195;BME280;37259;49.972;19.850;2022-10-30T01:33:02;99310;;;11.8;90.2
51195;BME280;37259;49.972;19.850;2022-10-30T01:34:01;99310;;;11.8;90.2
51195;BME280;37259;49.972;19.850;2022-10-30T01:35:01;99300;;;11.9;90.2
51195;BME280;37259;49.972;19.850;2022-10-30T01:36:00;99300;;;11.9;90.2
51195;BME280;37259;49.972;19.850;2022-10-30T01:37:00;99300;;;11.9;90.1
51195;BME280;37259;49.972;19.850;2022-10-30T01:38:00;99300;;;11.9;90.1
51195;BME280;37259;49.972;19.850;2022-10-30T01:39:00;99290;;;11.9;90.1
51195;BME280;37259;49.972;19.850;2022-10-30T01:40:02;99290;;;11.9;90.1
51195;BME280;37259;49.972;19.850;2022-10-30T01:40:59;99280;;;11.9;90.2
51195;BME280;37259;49.972;19.850;2022-10-30T01:41:59;99280;;;11.9;90.3
51195;BME280;37259;49.972;19.850;2022-10-30T01:42:59;99280;;;11.9;90.3
51195;BME280;37259;49.972;19.850;2022-10-30T01:44:00;99280;;;11.9;90.2
51195;BME280;37259;49.972;19.850;2022-10-30T01:44:59;99280;;;11.9;90.2
51195;BME280;37259;49.972;19.850;2022-10-30T01:46:04;99280;;;11.9;90.3
51195;BME280;37259;49.972;19.850;2022-10-30T01:47:02;99280;;;11.9;90.3
51195;BME280;37259;49.972;19.850;2022-10-30T01:48:07;99280;;;12;90.3
51195;BME280;37259;49.972;19.850;2022-10-30T01:49:03;99280;;;12;90.2
51195;BME280;37259;49.972;19.850;2022-10-30T01:50:05;99280;;;12;90.2
51195;BME280;37259;49.972;19.850;2022-10-30T01:50:59;99280;;;12;90.2
51195;BME280;37259;49.972;19.850;2022-10-30T01:52:01;99280;;;12;90.2
51195;BME280;37259;49.972;19.850;2022-10-30T01:53:00;99280;;;12;90.1
51195;BME280;37259;49.972;19.850;2022-10-30T01:54:00;99280;;;12;90.1
51195;BME280;37259;49.972;19.850;2022-10-30T01:55:01;99280;;;11.9;89.9
51195;BME280;37259;49.972;19.850;2022-10-30T01:56:00;99280;;;12;89.9
51195;BME280;37259;49.972;19.850;2022-10-30T01:57:01;99280;;;12;89.9
51195;BME280;37259;49.972;19.850;2022-10-30T01:58:01;99280;;;12;89.8
51195;BME280;37259;49.972;19.850;2022-10-30T01:59:00;99280;;;12;89.8
51195;BME280;37259;49.972;19.850;2022-10-30T02:00:01;99270;;;12;89.8
51195;BME280;37259;49.972;19.850;2022-10-30T02:00:59;99270;;;12;89.8
51195;BME280;37259;49.972;19.850;2022-10-30T02:01:59;99270;;;12;89.7
51195;BME280;37259;49.972;19.850;2022-10-30T02:02:59;99270;;;12;89.7
51195;BME280;37259;49.972;19.850;2022-10-30T02:03:59;99270;;;12;89.7
51195;BME280;37259;49.972;19.850;2022-10-30T02:04:59;99280;;;12;89.6
51195;BME280;37259;49.972;19.850;2022-10-30T02:05:59;99280;;;12;89.6
51195;BME280;37259;49.972;19.850;2022-10-30T02:06:59;99280;;;12;89.5
51195;BME280;37259;49.972;19.850;2022-10-30T02:07:59;99280;;;11.9;89.4
51195;BME280;37259;49.972;19.850;2022-10-30T02:08:59;99280;;;11.9;89.4
51195;BME280;37259;49.972;19.850;2022-10-30T02:09:59;99290;;;11.9;89.3
51195;BME280;37259;49.972;19.850;2022-10-30T02:10:59;99290;;;11.9;89.3
51195;BME280;37259;49.972;19.850;2022-10-30T02:11:59;99290;;;11.9;89.3
51195;BME280;37259;49.972;19.850;2022-10-30T02:12:59;99290;;;11.9;89.2
51195;BME280;37259;49.972;19.850;2022-10-30T02:14:00;99280;;;11.9;89.2
51195;BME280;37259;49.972;19.850;2022-10-30T02:14:59;99280;;;11.9;89.1
51195;BME280;37259;49.972;19.850;2022-10-30T02:15:59;99280;;;11.9;89.1
51195;BME280;37259;49.972;19.850;2022-10-30T02:16:59;99280;;;11.9;89
51195;BME280;37259;49.972;19.850;2022-10-30T02:17:59;99280;;;11.9;89
51195;BME280;37259;49.972;19.850;2022-10-30T02:18:59;99280;;;11.8;88.9
51195;BME280;37259;49.972;19.850;2022-10-30T02:19:59;99270;;;11.8;88.9
51195;BME280;37259;49.972;19.850;2022-10-30T02:20:59;99270;;;11.8;88.9
51195;BME280;37259;49.972;19.850;2022-10-30T02:21:59;99270;;;11.8;88.9
51195;BME280;37259;49.972;19.850;2022-10-30T02:22:59;99270;;;11.8;88.8
51195;BME280;37259;49.972;19.850;2022-10-30T02:23:59;99270;;;11.8;88.8
51195;BME280;37259;49.972;19.850;2022-10-30T02:24:59;99270;;;11.8;88.8
51195;BME280;37259;49.972;19.850;2022-10-30T02:25:59;99270;;;11.7;88.7
51195;BME280;37259;49.972;19.850;2022-10-30T02:26:59;99270;;;11.7;88.7
51195;BME280;37259;49.972;19.850;2022-10-30T02:27:59;99270;;;11.7;88.6
51195;BME280;37259;49.972;19.850;2022-10-30T02:28:59;99270;;;11.7;88.6
51195;BME280;37259;49.972;19.850;2022-10-30T02:29:59;99280;;;11.7;88.6
51195;BME280;37259;49.972;19.850;2022-10-30T02:30:59;99280;;;11.7;88.5
51195;BME280;37259;49.972;19.850;2022-10-30T02:31:59;99280;;;11.7;88.5
51195;BME280;37259;49.972;19.850;2022-10-30T02:32:59;99280;;;11.7;88.5
51195;BME280;37259;49.972;19.850;2022-10-30T02:33:59;99290;;;11.6;88.4
51195;BME280;37259;49.972;19.850;2022-10-30T02:34:59;99290;;;11.6;88.4
51195;BME280;37259;49.972;19.850;2022-10-30T02:35:59;99290;;;11.6;88.4
51195;BME280;37259;49.972;19.850;2022-10-30T02:36:59;99290;;;11.6;88.4
51195;BME280;37259;49.972;19.850;2022-10-30T02:37:59;99290;;;11.6;88.4
51195;BME280;37259;49.972;19.850;2022-10-30T02:38:59;99290;;;11.6;88.4
51195;BME280;37259;49.972;19.850;2022-10-30T02:39:59;99290;;;11.6;88.4
51195;BME280;37259;49.972;19.850;2022-10-30T02:40:59;99290;;;11.6;88.4
51195;BME280;37259;49.972;19.850;2022-10-30T02:41:59;99290;;;11.5;88.4
51195;BME280;37259;49.972;19.850;2022-10-30T02:42:59;99290;;;11.5;88.4
51195;BME280;37259;49.972;19.850;2022-10-30T02:43:59;99300;;;11.5;88.4
51195;BME280;37259;49.972;19.850;2022-10-30T02:44:59;99300;;;11.5;88.5
51195;BME280;37259;49.972;19.850;2022-10-30T02:45:59;99300;;;11.5;88.5
51195;BME280;37259;49.972;19.850;2022-10-30T02:46:59;99300;;;11.5;88.5
51195;BME280;37259;49.972;19.850;2022-10-30T02:47:59;99300;;;11.5;88.5
51195;BME280;37259;49.972;19.850;2022-10-30T02:48:59;99300;;;11.4;88.5
51195;BME280;37259;49.972;19.850;2022-10-30T02:49:59;99300;;;11.4;88.5
51195;BME280;37259;49.972;19.850;2022-10-30T02:50:59;99300;;;11.4;88.5
51195;BME280;37259;49.972;19.850;2022-10-30T02:51:59;99300;;;11.4;88.5
51195;BME280;37259;49.972;19.850;2022-10-30T02:52:59;99290;;;11.4;88.5
51195;BME280;37259;49.972;19.850;2022-10-30T02:53:59;99290;;;11.4;88.5
51195;BME280;37259;49.972;19.850;2022-10-30T02:54:59;99290;;;11.3;88.4
51195;BME280;37259;49.972;19.850;2022-10-30T02:56:01;99290;;;11.3;88.4
51195;BME280;37259;49.972;19.850;2022-10-30T02:56:59;99300;;;11.3;88.4
51195;BME280;37259;49.972;19.850;2022-10-30T02:57:59;99300;;;11.3;88.4
51195;BME280;37259;49.972;19.850;2022-10-30T02:58:59;99300;;;11.3;88.4
51195;BME280;37259;49.972;19.850;2022-10-30T02:59:59;99300;;;11.2;88.3
51195;BME280;37259;49.972;19.850;2022-10-30T03:01:03;99300;;;11.2;88.3
51195;BME280;37259;49.972;19.850;2022-10-30T03:01:59;99300;;;11.2;88.2
51195;BME280;37259;49.972;19.850;2022-10-30T03:02:59;99300;;;11.2;88.2
51195;BME280;37259;49.972;19.850;2022-10-30T03:03:59;99300;;;11.2;88.2
51195;BME280;37259;49.972;19.850;2022-10-30T03:04:59;99300;;;11.2;88.2
51195;BME280;37259;49.972;19.850;2022-10-30T03:05:59;99310;;;11.1;88.2
51195;BME280;37259;49.972;19.850;2022-10-30T03:06:59;99310;;;11.1;88.2
51195;BME280;37259;49.972;19.850;2022-10-30T03:07:59;99310;;;11.1;88.2
51195;BME280;37259;49.972;19.850;2022-10-30T03:08:59;99310;;;11.1;88.1
51195;BME280;37259;49.972;19.850;2022-10-30T03:09:59;99310;;;11;88.1
51195;BME280;37259;49.972;19.850;2022-10-30T03:10:59;99310;;;11;88.1
51195;BME280;37259;49.972;19.850;2022-10-30T03:11:59;99300;;;11;88.1
51195;BME280;37259;49.972;19.850;2022-10-30T03:12:59;99300;;;11;88.1
51195;BME280;37259;49.972;19.850;2022-10-30T03:13:59;99300;;;11;88.1
51195;BME280;37259;49.972;19.850;2022-10-30T03:14:59;99290;;;11;88.1
51195;BME280;37259;49.972;19.850;2022-10-30T03:15:59;99290;;;11;88.2
51195;BME280;37259;49.972;19.850;2022-10-30T03:16:59;99290;;;11;88.2
51195;BME280;37259;49.972;19.850;2022-10-30T03:17:59;99290;;;11;88.2
51195;BME280;37259;49.972;19.850;2022-10-30T03:18:59;99280;;;10.9;88.2
51195;BME280;37259;49.972;19.850;2022-10-30T03:19:59;99280;;;10.9;88.2
51195;BME280;37259;49.972;19.850;2022-10-30T03:20:59;99280;;;10.9;88.2
51195;BME280;37259;49.972;19.850;2022-10-30T03:21:59;99270;;;10.9;88.4
51195;BME280;37259;49.972;19.850;2022-10-30T03:22:59;99270;;;10.9;88.4
51195;BME280;37259;49.972;19.850;2022-10-30T03:23:59;99270;;;10.9;88.8
51195;BME280;37259;49.972;19.850;2022-10-30T03:24:59;99270;;;10.9;88.9
51195;BME280;37259;49.972;19.850;2022-10-30T03:25:59;99270;;;10.9;88.9
51195;BME280;37259;49.972;19.850;2022-10-30T03:26:59;99280;;;10.8;89.4
51195;BME280;37259;49.972;19.850;2022-10-30T03:27:59;99280;;;10.8;89.4
51195;BME280;37259;49.972;19.850;2022-10-30T03:28:59;99290;;;10.8;89.5
51195;BME280;37259;49.972;19.850;2022-10-30T03:29:59;99290;;;10.8;89.5
51195;BME280;37259;49.972;19.850;2022-10-30T03:30:59;99290;;;10.9;89.6
51195;BME280;37259;49.972;19.850;2022-10-30T03:31:59;99290;;;10.9;89.6
51195;BME280;37259;49.972;19.850;2022-10-30T03:32:59;99280;;;10.8;89.6
51195;BME280;37259;49.972;19.850;2022-10-30T03:33:59;99280;;;10.8;89.6
51195;BME280;37259;49.972;19.850;2022-10-30T03:34:59;99290;;;10.8;89.7
51195;BME280;37259;49.972;19.850;2022-10-30T03:35:59;99290;;;10.8;89.7
51195;BME280;37259;49.972;19.850;2022-10-30T03:36:59;99280;;;10.8;89.7
51195;BME280;37259;49.972;19.850;2022-10-30T03:37:59;99280;;;10.8;89.8
51195;BME280;37259;49.972;19.850;2022-10-30T03:38:59;99280;;;10.8;89.8
51195;BME280;37259;49.972;19.850;2022-10-30T03:39:59;99280;;;10.9;89.8
51195;BME280;37259;49.972;19.850;2022-10-30T03:40:59;99280;;;10.9;89.9
51195;BME280;37259;49.972;19.850;2022-10-30T03:41:59;99280;;;10.9;89.9
51195;BME280;37259;49.972;19.850;2022-10-30T03:42:59;99270;;;10.8;89.9
51195;BME280;37259;49.972;19.850;2022-10-30T03:43:59;99270;;;10.8;89.9
51195;BME280;37259;49.972;19.850;2022-10-30T03:44:59;99270;;;10.8;89.9
51195;BME280;37259;49.972;19.850;2022-10-30T03:45:59;99270;;;10.8;89.9
51195;BME280;37259;49.972;19.850;2022-10-30T03:46:59;99270;;;10.8;90.2
51195;BME280;37259;49.972;19.850;2022-10-30T03:47:59;99270;;;10.8;90.2
51195;BME280;37259;49.972;19.850;2022-10-30T03:48:59;99270;;;10.8;90.2
51195;BME280;37259;49.972;19.850;2022-10-30T03:49:59;99270;;;10.8;90.2
51195;BME280;37259;49.972;19.850;2022-10-30T03:50:59;99270;;;10.8;90.4
51195;BME280;37259;49.972;19.850;2022-10-30T03:51:59;99270;;;10.8;90.4
51195;BME280;37259;49.972;19.850;2022-10-30T03:52:59;99270;;;10.8;90.4
51195;BME280;37259;49.972;19.850;2022-10-30T03:53:59;99270;;;10.8;90.4
51195;BME280;37259;49.972;19.850;2022-10-30T03:54:59;99270;;;10.8;90.4
51195;BME280;37259;49.972;19.850;2022-10-30T03:56:00;99270;;;10.8;90.4
51195;BME280;37259;49.972;19.850;2022-10-30T03:56:59;99270;;;10.8;90.5
51195;BME280;37259;49.972;19.850;2022-10-30T03:57:59;99270;;;10.8;90.5
51195;BME280;37259;49.972;19.850;2022-10-30T03:58:59;99270;;;10.8;90.5
51195;BME280;37259;49.972;19.850;2022-10-30T03:59:59;99270;;;10.8;90.5
51195;BME280;37259;49.972;19.850;2022-10-30T04:00:59;99270;;;10.8;90.5
51195;BME280;37259;49.972;19.850;2022-10-30T04:01:59;99270;;;10.8;90.5
51195;BME280;37259;49.972;19.850;2022-10-30T04:02:59;99270;;;10.8;90.5
51195;BME280;37259;49.972;19.850;2022-10-30T04:03:59;99270;;;10.8;90.5
51195;BME280;37259;49.972;19.850;2022-10-30T04:04:59;99270;;;10.9;90.5
51195;BME280;37259;49.972;19.850;2022-10-30T04:05:59;99270;;;10.9;90.5
51195;BME280;37259;49.972;19.850;2022-10-30T04:06:59;99270;;;10.9;90.6
51195;BME280;37259;49.972;19.850;2022-10-30T04:08:00;99270;;;10.9;90.6
51195;BME280;37259;49.972;19.850;2022-10-30T04:08:59;99270;;;10.9;90.6
51195;BME280;37259;49.972;19.850;2022-10-30T04:09:59;99270;;;10.9;90.6
51195;BME280;37259;49.972;19.850;2022-10-30T04:10:59;99270;;;10.9;90.6
51195;BME280;37259;49.972;19.850;2022-10-30T04:11:59;99270;;;10.9;90.5
51195;BME280;37259;49.972;19.850;2022-10-30T04:12:59;99270;;;10.9;90.5
51195;BME280;37259;49.972;19.850;2022-10-30T04:13:59;99270;;;10.9;90.5
51195;BME280;37259;49.972;19.850;2022-10-30T04:14:59;99270;;;10.9;90.5
51195;BME280;37259;49.972;19.850;2022-10-30T04:15:59;99270;;;10.9;90.5
51195;BME280;37259;49.972;19.850;2022-10-30T04:16:59;99270;;;10.9;90.5
51195;BME280;37259;49.972;19.850;2022-10-30T04:17:59;99260;;;10.9;90.5
51195;BME280;37259;49.972;19.850;2022-10-30T04:18:59;99260;;;10.9;90.5
51195;BME280;37259;49.972;19.850;2022-10-30T04:19:59;99270;;;10.9;90.5
51195;BME280;37259;49.972;19.850;2022-10-30T04:20:59;99270;;;10.9;90.5
51195;BME280;37259;49.972;19.850;2022-10-30T04:21:59;99270;;;10.9;90.5
51195;BME280;37259;49.972;19.850;2022-10-30T04:22:59;99270;;;10.9;90.5
51195;BME280;37259;49.972;19.850;2022-10-30T04:23:59;99270;;;10.9;90.5
51195;BME280;37259;49.972;19.850;2022-10-30T04:24:59;99280;;;10.9;90.5
51195;BME280;37259;49.972;19.850;2022-10-30T04:25:59;99280;;;10.9;90.5
51195;BME280;37259;49.972;19.850;2022-10-30T04:26:59;99280;;;10.9;90.5
51195;BME280;37259;49.972;19.850;2022-10-30T04:27:59;99280;;;10.9;90.4
51195;BME280;37259;49.972;19.850;2022-10-30T04:28:59;99280;;;10.9;90.4
51195;BME280;37259;49.972;19.850;2022-10-30T04:29:59;99280;;;10.9;90.4
51195;BME280;37259;49.972;19.850;2022-10-30T04:30:59;99280;;;10.9;90.4
51195;BME280;37259;49.972;19.850;2022-10-30T04:31:59;99280;;;10.8;90.4
51195;BME280;37259;49.972;19.850;2022-10-30T04:32:59;99280;;;10.8;90.4
51195;BME280;37259;49.972;19.850;2022-10-30T04:33:59;99280;;;10.8;90.4
51195;BME280;37259;49.972;19.850;2022-10-30T04:34:59;99280;;;10.8;90.4
51195;BME280;37259;49.972;19.850;2022-10-30T04:35:59;99280;;;10.8;90.3
51195;BME280;37259;49.972;19.850;2022-10-30T04:36:59;99280;;;10.8;90.3
51195;BME280;37259;49.972;19.850;2022-10-30T04:38:00;99270;;;10.8;90.3
51195;BME280;37259;49.972;19.850;2022-10-30T04:38:59;99270;;;10.8;90.3
51195;BME280;37259;49.972;19.850;2022-10-30T04:39:59;99270;;;10.8;90.3
51195;BME280;37259;49.972;19.850;2022-10-30T04:40:59;99270;;;10.8;90.3
51195;BME280;37259;49.972;19.850;2022-10-30T04:41:59;99270;;;10.8;90.3
51195;BME280;37259;49.972;19.850;2022-10-30T04:42:59;99270;;;10.8;90.3
51195;BME280;37259;49.972;19.850;2022-10-30T04:43:59;99270;;;10.8;90.3
51195;BME280;37259;49.972;19.850;2022-10-30T04:44:59;99270;;;10.8;90.3
51195;BME280;37259;49.972;19.850;2022-10-30T04:46:02;99280;;;10.8;90.3
51195;BME280;37259;49.972;19.850;2022-10-30T04:46:59;99280;;;10.8;90.3
51195;BME280;37259;49.972;19.850;2022-10-30T04:47:59;99280;;;10.7;90.3
51195;BME280;37259;49.972;19.850;2022-10-30T04:48:59;99280;;;10.7;90.3
51195;BME280;37259;49.972;19.850;2022-10-30T04:49:59;99280;;;10.7;90.3
51195;BME280;37259;49.972;19.850;2022-10-30T04:50:59;99280;;;10.7;90.3
51195;BME280;37259;49.972;19.850;2022-10-30T04:51:59;99270;;;10.7;90.3
51195;BME280;37259;49.972;19.850;2022-10-30T04:52:59;99270;;;10.7;90.3
51195;BME280;37259;49.972;19.850;2022-10-30T04:53:59;99270;;;10.7;90.3
51195;BME280;37259;49.972;19.850;2022-10-30T04:54:59;99270;;;10.7;90.2
51195;BME280;37259;49.972;19.850;2022-10-30T04:55:59;99270;;;10.7;90.2
51195;BME280;37259;49.972;19.850;2022-10-30T04:56:59;99270;;;10.7;90.2
51195;BME280;37259;49.972;19.850;2022-10-30T04:57:59;99270;;;10.7;90.2
51195;BME280;37259;49.972;19.850;2022-10-30T04:58:59;99270;;;10.7;90.2
51195;BME280;37259;49.972;19.850;2022-10-30T04:59:59;99270;;;10.7;90.2
51195;BME280;37259;49.972;19.850;2022-10-30T05:00:59;99270;;;10.7;90.2
51195;BME280;37259;49.972;19.850;2022-10-30T05:01:59;99270;;;10.7;90.2
51195;BME280;37259;49.972;19.850;2022-10-30T05:02:59;99270;;;10.7;90.2
51195;BME280;37259;49.972;19.850;2022-10-30T05:03:59;99270;;;10.7;90.2
51195;BME280;37259;49.972;19.850;2022-10-30T05:04:59;99270;;;10.7;90.2
51195;BME280;37259;49.972;19.850;2022-10-30T05:06:00;99270;;;10.7;90.2
51195;BME280;37259;49.972;19.850;2022-10-30T05:06:59;99270;;;10.7;90.2
51195;BME280;37259;49.972;19.850;2022-10-30T05:07:59;99270;;;10.6;90.3
51195;BME280;37259;49.972;19.850;2022-10-30T05:08:59;99270;;;10.6;90.3
51195;BME280;37259;49.972;19.850;2022-10-30T05:09:59;99270;;;10.6;90.3
51195;BME280;37259;49.972;19.850;2022-10-30T05:10:59;99270;;;10.6;90.3
51195;BME280;37259;49.972;19.850;2022-10-30T05:11:59;99270;;;10.6;90.3
51195;BME280;37259;49.972;19.850;2022-10-30T05:12:59;99270;;;10.6;90.3
51195;BME280;37259;49.972;19.850;2022-10-30T05:13:59;99270;;;10.6;90.4
51195;BME280;37259;49.972;19.850;2022-10-30T05:14:59;99270;;;10.6;90.4
51195;BME280;37259;49.972;19.850;2022-10-30T05:15:59;99270;;;10.6;90.4
51195;BME280;37259;49.972;19.850;2022-10-30T05:16:59;99280;;;10.6;90.4
51195;BME280;37259;49.972;19.850;2022-10-30T05:17:59;99280;;;10.6;90.4
51195;BME280;37259;49.972;19.850;2022-10-30T05:18:59;99280;;;10.5;90.4
51195;BME280;37259;49.972;19.850;2022-10-30T05:19:59;99280;;;10.5;90.4
51195;BME280;37259;49.972;19.850;2022-10-30T05:20:59;99280;;;10.5;90.5
51195;BME280;37259;49.972;19.850;2022-10-30T05:21:59;99280;;;10.5;90.5
51195;BME280;37259;49.972;19.850;2022-10-30T05:22:59;99280;;;10.5;90.5
51195;BME280;37259;49.972;19.850;2022-10-30T05:23:59;99280;;;10.5;90.5
51195;BME280;37259;49.972;19.850;2022-10-30T05:24:59;99280;;;10.5;90.4
51195;BME280;37259;49.972;19.850;2022-10-30T05:25:59;99280;;;10.5;90.4
51195;BME280;37259;49.972;19.850;2022-10-30T05:26:59;99290;;;10.5;90.4
51195;BME280;37259;49.972;19.850;2022-10-30T05:27:59;99290;;;10.5;90.4
51195;BME280;37259;49.972;19.850;2022-10-30T05:28:59;99290;;;10.5;90.4
51195;BME280;37259;49.972;19.850;2022-10-30T05:29:59;99290;;;10.4;90.3
51195;BME280;37259;49.972;19.850;2022-10-30T05:30:59;99290;;;10.4;90.3
51195;BME280;37259;49.972;19.850;2022-10-30T05:31:59;99290;;;10.4;90.3
51195;BME280;37259;49.972;19.850;2022-10-30T05:32:59;99290;;;10.4;90.3
51195;BME280;37259;49.972;19.850;2022-10-30T05:33:59;99290;;;10.5;90.3
51195;BME280;37259;49.972;19.850;2022-10-30T05:34:59;99290;;;10.5;90.3
51195;BME280;37259;49.972;19.850;2022-10-30T05:35:59;99290;;;10.5;90.3
51195;BME280;37259;49.972;19.850;2022-10-30T05:36:59;99290;;;10.5;90.3